Philipsburg, Pennsylvania
Current Conditions -  °F | °C
As of 2:54 PM on Monday 24 Nov 2014 (Local Time) from KFIG Reporting Station
Broken Clouds Broken Clouds  
Wind Chill: 67°   Ceiling: 8000
Heat Index: 67°   Visibility: 10mi
Dew Point: 39°   Wind: 16mph
Humidity: 36%   Direction: 220°SW
Pressure: 29.45"   Gusts: 37mph
Location:  40.9°N, 78.22°W
Report Text: KFIG 241954Z AUTO 22014G32KT 10SM BKN080 19/04 A2945 RMK AO2 PK WND 22032/1946 SLP969 T01940039
Loading
Personal Weather Stations






























Interactive Weather Map New forecast layout! Learn more

10-Day Weather Forecast

Advertisements
Track Severe Weather on mobile